sensor_id;sensor_type;location;lat;lon;timestamp;P1;durP1;ratioP1;P2;durP2;ratioP2
86045;SDS011;76641;52.232;5.176;2024-02-15T14:59:43;24.60;;;9.52;;
86045;SDS011;76641;52.232;5.176;2024-02-15T15:02:11;26.40;;;10.52;;
86045;SDS011;76641;52.232;5.176;2024-02-15T15:04:38;22.80;;;8.80;;
86045;SDS011;76641;52.232;5.176;2024-02-15T15:07:42;22.05;;;8.55;;
86045;SDS011;76641;52.232;5.176;2024-02-15T15:10:27;22.33;;;8.52;;
86045;SDS011;76641;52.232;5.176;2024-02-15T15:13:16;21.10;;;8.60;;
86045;SDS011;76641;52.232;5.176;2024-02-15T15:15:44;20.85;;;8.77;;
86045;SDS011;76641;52.232;5.176;2024-02-15T15:39:13;25.25;;;10.15;;
86045;SDS011;76641;52.232;5.176;2024-02-15T15:41:43;26.27;;;10.75;;
86045;SDS011;76641;52.232;5.176;2024-02-15T15:47:50;26.52;;;9.38;;
86045;SDS011;76641;52.232;5.176;2024-02-15T15:50:16;23.80;;;9.30;;
86045;SDS011;76641;52.232;5.176;2024-02-15T15:52:42;23.25;;;8.68;;
86045;SDS011;76641;52.232;5.176;2024-02-15T15:55:11;19.88;;;8.18;;
86045;SDS011;76641;52.232;5.176;2024-02-15T15:57:38;19.67;;;8.00;;
86045;SDS011;76641;52.232;5.176;2024-02-15T16:00:08;20.67;;;7.72;;
86045;SDS011;76641;52.232;5.176;2024-02-15T16:02:47;16.80;;;7.10;;
86045;SDS011;76641;52.232;5.176;2024-02-15T16:12:42;15.85;;;6.03;;
86045;SDS011;76641;52.232;5.176;2024-02-15T16:15:09;15.45;;;6.30;;
86045;SDS011;76641;52.232;5.176;2024-02-15T16:38:51;39.95;;;13.90;;
86045;SDS011;76641;52.232;5.176;2024-02-15T16:41:17;34.63;;;13.25;;
86045;SDS011;76641;52.232;5.176;2024-02-15T16:43:45;38.38;;;13.90;;
86045;SDS011;76641;52.232;5.176;2024-02-15T16:46:11;35.15;;;13.75;;
86045;SDS011;76641;52.232;5.176;2024-02-15T16:48:38;36.92;;;14.65;;
86045;SDS011;76641;52.232;5.176;2024-02-15T16:51:04;36.60;;;14.10;;
86045;SDS011;76641;52.232;5.176;2024-02-15T16:53:31;33.47;;;13.13;;
86045;SDS011;76641;52.232;5.176;2024-02-15T16:55:59;33.88;;;13.40;;
86045;SDS011;76641;52.232;5.176;2024-02-15T17:31:40;42.78;;;15.40;;
86045;SDS011;76641;52.232;5.176;2024-02-15T17:34:07;35.28;;;13.77;;
86045;SDS011;76641;52.232;5.176;2024-02-15T17:36:36;37.72;;;12.23;;
86045;SDS011;76641;52.232;5.176;2024-02-15T17:39:03;33.42;;;11.60;;
86045;SDS011;76641;52.232;5.176;2024-02-15T17:41:29;30.63;;;10.85;;
86045;SDS011;76641;52.232;5.176;2024-02-15T17:43:56;34.15;;;10.90;;
86045;SDS011;76641;52.232;5.176;2024-02-15T17:49:25;25.13;;;9.43;;
86045;SDS011;76641;52.232;5.176;2024-02-15T17:51:51;26.85;;;9.27;;
86045;SDS011;76641;52.232;5.176;2024-02-15T17:54:17;25.73;;;9.18;;
86045;SDS011;76641;52.232;5.176;2024-02-15T17:56:43;23.10;;;8.63;;
86045;SDS011;76641;52.232;5.176;2024-02-15T17:59:09;24.30;;;8.10;;
86045;SDS011;76641;52.232;5.176;2024-02-15T18:01:36;20.35;;;7.78;;
86045;SDS011;76641;52.232;5.176;2024-02-15T18:04:04;18.77;;;7.18;;
86045;SDS011;76641;52.232;5.176;2024-02-15T18:06:31;24.45;;;7.68;;
86045;SDS011;76641;52.232;5.176;2024-02-15T18:08:57;17.10;;;6.30;;
86045;SDS011;76641;52.232;5.176;2024-02-15T18:11:23;17.48;;;7.07;;
86045;SDS011;76641;52.232;5.176;2024-02-15T18:13:49;18.20;;;6.20;;
86045;SDS011;76641;52.232;5.176;2024-02-15T18:16:15;16.52;;;6.47;;
86045;SDS011;76641;52.232;5.176;2024-02-15T18:18:42;12.18;;;5.50;;
86045;SDS011;76641;52.232;5.176;2024-02-15T18:21:08;15.57;;;6.38;;
86045;SDS011;76641;52.232;5.176;2024-02-15T18:23:35;13.60;;;6.05;;
86045;SDS011;76641;52.232;5.176;2024-02-15T18:26:02;21.52;;;7.85;;
86045;SDS011;76641;52.232;5.176;2024-02-15T18:28:28;39.70;;;14.85;;
86045;SDS011;76641;52.232;5.176;2024-02-15T18:30:55;52.72;;;18.80;;
86045;SDS011;76641;52.232;5.176;2024-02-15T18:36:46;58.72;;;20.17;;
86045;SDS011;76641;52.232;5.176;2024-02-15T18:39:14;56.30;;;19.25;;
86045;SDS011;76641;52.232;5.176;2024-02-15T18:41:40;49.10;;;17.75;;
86045;SDS011;76641;52.232;5.176;2024-02-15T18:44:11;52.65;;;16.77;;
86045;SDS011;76641;52.232;5.176;2024-02-15T18:46:37;42.10;;;15.15;;
86045;SDS011;76641;52.232;5.176;2024-02-15T18:49:03;41.33;;;14.95;;
86045;SDS011;76641;52.232;5.176;2024-02-15T18:51:29;33.83;;;13.25;;
86045;SDS011;76641;52.232;5.176;2024-02-15T18:53:55;32.40;;;11.85;;
86045;SDS011;76641;52.232;5.176;2024-02-15T18:56:21;31.80;;;12.23;;
86045;SDS011;76641;52.232;5.176;2024-02-15T18:58:47;33.25;;;11.82;;
86045;SDS011;76641;52.232;5.176;2024-02-15T19:01:14;28.38;;;11.00;;
86045;SDS011;76641;52.232;5.176;2024-02-15T19:03:40;31.48;;;11.32;;
86045;SDS011;76641;52.232;5.176;2024-02-15T19:06:07;28.73;;;10.68;;
86045;SDS011;76641;52.232;5.176;2024-02-15T19:11:01;26.88;;;10.13;;
86045;SDS011;76641;52.232;5.176;2024-02-15T19:13:27;22.73;;;8.52;;
86045;SDS011;76641;52.232;5.176;2024-02-15T19:15:55;25.88;;;9.23;;
86045;SDS011;76641;52.232;5.176;2024-02-15T19:18:21;20.13;;;8.68;;
86045;SDS011;76641;52.232;5.176;2024-02-15T19:20:48;19.23;;;7.65;;
86045;SDS011;76641;52.232;5.176;2024-02-15T19:23:14;20.80;;;8.13;;
86045;SDS011;76641;52.232;5.176;2024-02-15T19:25:40;19.08;;;7.38;;
86045;SDS011;76641;52.232;5.176;2024-02-15T19:28:08;17.60;;;7.20;;
86045;SDS011;76641;52.232;5.176;2024-02-15T19:31:43;15.32;;;5.10;;
86045;SDS011;76641;52.232;5.176;2024-02-15T19:34:12;15.00;;;4.78;;
86045;SDS011;76641;52.232;5.176;2024-02-15T19:36:40;15.15;;;5.53;;
86045;SDS011;76641;52.232;5.176;2024-02-15T19:39:06;14.05;;;4.72;;
86045;SDS011;76641;52.232;5.176;2024-02-15T19:44:01;11.60;;;3.90;;
86045;SDS011;76641;52.232;5.176;2024-02-15T19:46:33;10.27;;;3.35;;
86045;SDS011;76641;52.232;5.176;2024-02-15T19:49:09;12.38;;;3.75;;
86045;SDS011;76641;52.232;5.176;2024-02-15T19:51:36;12.32;;;3.60;;
86045;SDS011;76641;52.232;5.176;2024-02-15T19:54:02;10.73;;;3.33;;
86045;SDS011;76641;52.232;5.176;2024-02-15T19:56:29;10.07;;;3.60;;
86045;SDS011;76641;52.232;5.176;2024-02-15T19:59:01;8.80;;;3.25;;
86045;SDS011;76641;52.232;5.176;2024-02-15T20:01:29;9.35;;;2.92;;
86045;SDS011;76641;52.232;5.176;2024-02-15T20:03:56;9.40;;;3.10;;
86045;SDS011;76641;52.232;5.176;2024-02-15T20:12:36;30.60;;;11.63;;
86045;SDS011;76641;52.232;5.176;2024-02-15T20:15:02;23.85;;;8.60;;
86045;SDS011;76641;52.232;5.176;2024-02-15T20:17:29;24.17;;;9.63;;
86045;SDS011;76641;52.232;5.176;2024-02-15T20:27:30;16.80;;;6.50;;
86045;SDS011;76641;52.232;5.176;2024-02-15T20:29:57;18.25;;;6.75;;
86045;SDS011;76641;52.232;5.176;2024-02-15T20:32:23;17.23;;;6.25;;
86045;SDS011;76641;52.232;5.176;2024-02-15T20:43:30;23.17;;;7.95;;
86045;SDS011;76641;52.232;5.176;2024-02-15T20:45:56;24.67;;;7.22;;
86045;SDS011;76641;52.232;5.176;2024-02-15T20:48:22;15.75;;;6.20;;
86045;SDS011;76641;52.232;5.176;2024-02-15T20:59:44;23.88;;;8.70;;
86045;SDS011;76641;52.232;5.176;2024-02-15T21:02:10;17.90;;;7.30;;
86045;SDS011;76641;52.232;5.176;2024-02-15T21:10:23;27.98;;;10.05;;
86045;SDS011;76641;52.232;5.176;2024-02-15T21:18:03;25.33;;;9.80;;
86045;SDS011;76641;52.232;5.176;2024-02-15T21:21:12;24.00;;;8.35;;
86045;SDS011;76641;52.232;5.176;2024-02-15T21:23:38;19.83;;;7.88;;
86045;SDS011;76641;52.232;5.176;2024-02-15T21:26:08;23.70;;;8.35;;
86045;SDS011;76641;52.232;5.176;2024-02-15T21:28:34;36.30;;;12.90;;
86045;SDS011;76641;52.232;5.176;2024-02-15T21:31:11;32.95;;;12.35;;
86045;SDS011;76641;52.232;5.176;2024-02-15T21:33:43;30.92;;;12.00;;
86045;SDS011;76641;52.232;5.176;2024-02-15T21:36:09;44.25;;;15.95;;
86045;SDS011;76641;52.232;5.176;2024-02-15T21:38:36;47.58;;;19.13;;
86045;SDS011;76641;52.232;5.176;2024-02-15T21:43:12;46.30;;;16.73;;
86045;SDS011;76641;52.232;5.176;2024-02-15T21:45:38;41.47;;;15.50;;
86045;SDS011;76641;52.232;5.176;2024-02-15T21:48:04;36.33;;;13.80;;
86045;SDS011;76641;52.232;5.176;2024-02-15T21:50:30;36.28;;;12.75;;
86045;SDS011;76641;52.232;5.176;2024-02-15T21:52:56;31.05;;;11.93;;
86045;SDS011;76641;52.232;5.176;2024-02-15T21:55:24;30.75;;;10.95;;
86045;SDS011;76641;52.232;5.176;2024-02-15T21:57:51;27.98;;;10.98;;
86045;SDS011;76641;52.232;5.176;2024-02-15T22:00:17;31.52;;;10.85;;
86045;SDS011;76641;52.232;5.176;2024-02-15T22:02:43;27.33;;;9.88;;
86045;SDS011;76641;52.232;5.176;2024-02-15T22:05:09;25.83;;;9.25;;
86045;SDS011;76641;52.232;5.176;2024-02-15T22:07:35;22.60;;;8.82;;
86045;SDS011;76641;52.232;5.176;2024-02-15T22:10:01;23.55;;;9.02;;
86045;SDS011;76641;52.232;5.176;2024-02-15T22:12:27;20.50;;;7.65;;
86045;SDS011;76641;52.232;5.176;2024-02-15T22:14:53;20.02;;;7.60;;
86045;SDS011;76641;52.232;5.176;2024-02-15T22:17:19;20.77;;;7.53;;
86045;SDS011;76641;52.232;5.176;2024-02-15T22:19:45;20.25;;;6.65;;
86045;SDS011;76641;52.232;5.176;2024-02-15T22:22:11;20.73;;;6.57;;
86045;SDS011;76641;52.232;5.176;2024-02-15T22:24:37;17.02;;;6.30;;
86045;SDS011;76641;52.232;5.176;2024-02-15T22:27:04;19.23;;;6.47;;
86045;SDS011;76641;52.232;5.176;2024-02-15T22:29:31;13.48;;;5.53;;
86045;SDS011;76641;52.232;5.176;2024-02-15T22:31:58;14.05;;;5.32;;
86045;SDS011;76641;52.232;5.176;2024-02-15T22:34:25;15.07;;;5.65;;
86045;SDS011;76641;52.232;5.176;2024-02-15T22:36:51;17.60;;;5.55;;
86045;SDS011;76641;52.232;5.176;2024-02-15T22:39:17;11.23;;;4.50;;
86045;SDS011;76641;52.232;5.176;2024-02-15T22:41:43;15.07;;;4.72;;
86045;SDS011;76641;52.232;5.176;2024-02-15T22:44:09;12.23;;;4.57;;
86045;SDS011;76641;52.232;5.176;2024-02-15T22:46:43;10.82;;;4.22;;
86045;SDS011;76641;52.232;5.176;2024-02-15T22:51:36;11.23;;;3.47;;
86045;SDS011;76641;52.232;5.176;2024-02-15T22:54:05;11.30;;;3.83;;
86045;SDS011;76641;52.232;5.176;2024-02-15T22:56:32;10.85;;;3.70;;
86045;SDS011;76641;52.232;5.176;2024-02-15T22:58:59;9.70;;;3.65;;
86045;SDS011;76641;52.232;5.176;2024-02-15T23:01:25;9.15;;;3.20;;
86045;SDS011;76641;52.232;5.176;2024-02-15T23:03:51;8.77;;;3.47;;
86045;SDS011;76641;52.232;5.176;2024-02-15T23:06:17;11.27;;;3.38;;
86045;SDS011;76641;52.232;5.176;2024-02-15T23:08:43;9.85;;;3.25;;
86045;SDS011;76641;52.232;5.176;2024-02-15T23:11:09;8.48;;;3.15;;
86045;SDS011;76641;52.232;5.176;2024-02-15T23:13:38;8.25;;;2.60;;
86045;SDS011;76641;52.232;5.176;2024-02-15T23:16:04;7.43;;;2.65;;
86045;SDS011;76641;52.232;5.176;2024-02-15T23:18:30;8.10;;;2.42;;
86045;SDS011;76641;52.232;5.176;2024-02-15T23:20:56;7.63;;;2.78;;
86045;SDS011;76641;52.232;5.176;2024-02-15T23:23:22;7.10;;;2.50;;
86045;SDS011;76641;52.232;5.176;2024-02-15T23:25:48;7.65;;;2.55;;
86045;SDS011;76641;52.232;5.176;2024-02-15T23:28:14;8.95;;;2.45;;
86045;SDS011;76641;52.232;5.176;2024-02-15T23:30:41;6.18;;;2.45;;
86045;SDS011;76641;52.232;5.176;2024-02-15T23:33:07;4.97;;;1.95;;
86045;SDS011;76641;52.232;5.176;2024-02-15T23:35:35;5.93;;;2.15;;
86045;SDS011;76641;52.232;5.176;2024-02-15T23:38:12;6.05;;;2.00;;
86045;SDS011;76641;52.232;5.176;2024-02-15T23:40:57;5.18;;;1.92;;
86045;SDS011;76641;52.232;5.176;2024-02-15T23:43:25;4.78;;;1.85;;
86045;SDS011;76641;52.232;5.176;2024-02-15T23:45:51;5.03;;;1.70;;
86045;SDS011;76641;52.232;5.176;2024-02-15T23:48:17;3.72;;;1.30;;
86045;SDS011;76641;52.232;5.176;2024-02-15T23:50:43;6.38;;;1.60;;
86045;SDS011;76641;52.232;5.176;2024-02-15T23:53:10;5.97;;;1.77;;
86045;SDS011;76641;52.232;5.176;2024-02-15T23:55:36;5.55;;;1.90;;
86045;SDS011;76641;52.232;5.176;2024-02-15T23:58:03;4.57;;;1.75;;
